createdAt,value
2022-12-18T00:00:20.439Z,101864.38
2022-12-18T00:01:25.920Z,101870.53
2022-12-18T00:02:28.850Z,101864.69
2022-12-18T00:03:31.260Z,101860.69
2022-12-18T00:04:33.892Z,101871.63
2022-12-18T00:05:37.350Z,101869.78
2022-12-18T00:06:40.059Z,101864.53
2022-12-18T00:07:43.605Z,101868.72
2022-12-18T00:08:46.641Z,101879.25
2022-12-18T00:09:49.186Z,101874.06
2022-12-18T00:10:53.888Z,101872.22
2022-12-18T00:13:18.271Z,101889.97
2022-12-18T00:14:20.934Z,101885.81
2022-12-18T00:15:23.378Z,101881.84
2022-12-18T00:16:27.030Z,101890.66
2022-12-18T00:17:29.386Z,101887.53
2022-12-18T00:18:32.344Z,101891.63
2022-12-18T00:19:35.103Z,101892.66
2022-12-18T00:20:39.453Z,101893.25
2022-12-18T00:21:42.841Z,101894.63
2022-12-18T00:22:45.332Z,101901.81
2022-12-18T00:23:49.309Z,101901.81
2022-12-18T00:24:52.755Z,101890.66
2022-12-18T00:25:55.424Z,101903.84
2022-12-18T00:26:58.069Z,101906.22
2022-12-18T00:28:00.433Z,101905.84
2022-12-18T00:29:06.951Z,101915.22
2022-12-18T00:30:10.389Z,101909.38
2022-12-18T00:31:17.022Z,101907.00
2022-12-18T00:32:19.644Z,101911.84
2022-12-18T00:33:22.148Z,101916.38
2022-12-18T00:34:24.644Z,101919.78
2022-12-18T00:35:28.335Z,101925.97
2022-12-18T00:36:34.487Z,101919.50
2022-12-18T00:37:37.037Z,101926.84
2022-12-18T00:38:41.149Z,101925.78
2022-12-18T00:39:43.503Z,101931.59
2022-12-18T00:40:45.858Z,101930.16
2022-12-18T00:42:06.816Z,101934.19
2022-12-18T00:43:09.216Z,101942.13
2022-12-18T00:44:14.176Z,101940.34
2022-12-18T00:45:16.618Z,101937.75
2022-12-18T00:46:19.003Z,101945.88
2022-12-18T00:47:22.241Z,101949.78
2022-12-18T00:48:25.144Z,101944.22
2022-12-18T00:49:27.656Z,101954.09
2022-12-18T00:50:30.957Z,101951.06
2022-12-18T00:51:34.779Z,101957.16
2022-12-18T00:52:37.509Z,101959.06
2022-12-18T00:53:42.507Z,101958.72
2022-12-18T00:54:45.095Z,101962.25
2022-12-18T00:55:47.885Z,101966.72
2022-12-18T00:56:50.495Z,101961.19
2022-12-18T00:57:53.674Z,101968.31
2022-12-18T00:58:56.183Z,101967.47
2022-12-18T00:59:58.892Z,101962.34
2022-12-18T01:01:01.380Z,101963.50
2022-12-18T01:02:03.992Z,101973.22
2022-12-18T01:03:07.601Z,101970.13
2022-12-18T01:04:10.251Z,101974.16
2022-12-18T01:05:14.718Z,101971.72
2022-12-18T01:06:17.854Z,101971.56
2022-12-18T01:07:20.241Z,101967.53
2022-12-18T01:08:22.865Z,101973.50
2022-12-18T01:09:25.605Z,101971.72
2022-12-18T01:10:28.199Z,101973.94
2022-12-18T01:11:33.693Z,101976.34
2022-12-18T01:12:36.269Z,101976.91
2022-12-18T01:13:39.533Z,101982.28
2022-12-18T01:14:42.154Z,101981.72
2022-12-18T01:15:51.602Z,101988.44
2022-12-18T01:16:54.314Z,101987.69
2022-12-18T01:18:02.693Z,101984.94
2022-12-18T01:19:05.381Z,101987.69
2022-12-18T01:20:09.686Z,101985.47
2022-12-18T01:21:13.854Z,101989.94
2022-12-18T01:22:16.562Z,101988.72
2022-12-18T01:23:20.833Z,101990.88
2022-12-18T01:24:23.235Z,101994.72
2022-12-18T01:25:26.267Z,101988.00
2022-12-18T01:26:30.692Z,101995.53
2022-12-18T01:27:35.389Z,102005.34
2022-12-18T01:28:40.665Z,102001.13
2022-12-18T01:29:46.464Z,102004.13
2022-12-18T01:30:49.062Z,101998.59
2022-12-18T01:31:51.461Z,101993.41
2022-12-18T01:32:54.128Z,101996.78
2022-12-18T01:33:57.018Z,101995.19
2022-12-18T01:34:59.639Z,101990.81
2022-12-18T01:36:03.610Z,101996.00
2022-12-18T01:37:06.419Z,101994.00
2022-12-18T01:38:09.432Z,101996.66
2022-12-18T01:39:13.886Z,101988.91
2022-12-18T01:40:17.781Z,102004.47
2022-12-18T01:41:49.165Z,102000.31
2022-12-18T01:42:54.850Z,101999.47
2022-12-18T01:43:59.353Z,101996.88
2022-12-18T01:45:07.989Z,102000.25
2022-12-18T01:46:10.526Z,102006.59
2022-12-18T01:47:19.633Z,102000.63
2022-12-18T01:48:22.021Z,102008.41
2022-12-18T01:49:24.350Z,102005.59
2022-12-18T01:50:33.343Z,102009.00
2022-12-18T01:51:35.690Z,102010.56
2022-12-18T01:52:38.949Z,102014.81
2022-12-18T01:53:43.134Z,102020.00
2022-12-18T01:54:46.182Z,102013.22
2022-12-18T01:55:52.703Z,102021.22
2022-12-18T01:56:55.213Z,102023.97
2022-12-18T01:57:59.840Z,102021.38
2022-12-18T01:59:09.362Z,102032.78
2022-12-18T02:00:21.104Z,102029.22
2022-12-18T02:01:41.766Z,102036.38
2022-12-18T02:02:48.985Z,102027.22
2022-12-18T02:03:53.126Z,102033.78
2022-12-18T02:04:55.662Z,102030.03
2022-12-18T02:06:07.114Z,102038.44
2022-12-18T02:07:23.265Z,102040.81
2022-12-18T02:08:42.923Z,102034.09
2022-12-18T02:09:51.537Z,102042.25
2022-12-18T02:11:08.494Z,102041.09
2022-12-18T02:12:24.210Z,102038.09
2022-12-18T02:13:36.130Z,102050.50
2022-12-18T02:15:03.436Z,102045.53
2022-12-18T02:16:27.713Z,102049.69
2022-12-18T02:17:38.924Z,102047.09
2022-12-18T02:18:46.782Z,102046.94
2022-12-18T02:19:58.106Z,102050.56
2022-12-18T02:21:00.569Z,102053.75
2022-12-18T02:22:24.256Z,102056.97
2022-12-18T02:23:46.148Z,102058.16
2022-12-18T02:25:28.316Z,102060.19
2022-12-18T02:27:00.183Z,102062.19
2022-12-18T02:28:09.938Z,102068.22
2022-12-18T02:29:23.936Z,102065.53
2022-12-18T02:30:30.453Z,102070.13
2022-12-18T02:31:42.103Z,102079.19
2022-12-18T02:32:52.181Z,102072.00
2022-12-18T02:33:59.957Z,102073.59
2022-12-18T02:35:05.493Z,102072.78
2022-12-18T02:36:10.788Z,102079.34
2022-12-18T02:37:17.169Z,102071.31
2022-12-18T02:38:20.103Z,102077.88
2022-12-18T02:39:27.915Z,102081.50
2022-12-18T02:40:39.485Z,102080.31
2022-12-18T02:41:42.957Z,102081.38
2022-12-18T02:42:45.809Z,102081.34
2022-12-18T02:43:58.432Z,102080.97
2022-12-18T02:45:01.770Z,102083.94
2022-12-18T02:46:26.767Z,102087.38
2022-12-18T02:47:33.900Z,102091.16
2022-12-18T02:48:36.582Z,102092.72
2022-12-18T02:49:58.744Z,102091.34
2022-12-18T02:51:13.022Z,102086.50
2022-12-18T02:52:26.263Z,102093.16
2022-12-18T02:53:49.480Z,102094.94
2022-12-18T02:55:13.795Z,102095.91
2022-12-18T02:56:23.068Z,102096.53
2022-12-18T02:57:42.030Z,102108.25
2022-12-18T02:58:59.585Z,102103.06
2022-12-18T03:00:12.817Z,102101.03
2022-12-18T03:01:40.551Z,102104.66
2022-12-18T03:02:57.512Z,102104.44
2022-12-18T03:04:05.442Z,102112.19
2022-12-18T03:05:16.147Z,102112.41
2022-12-18T03:06:27.892Z,102111.81
2022-12-18T03:07:48.171Z,102115.19
2022-12-18T03:08:56.036Z,102112.41
2022-12-18T03:10:00.093Z,102107.63
2022-12-18T03:11:09.995Z,102110.66
2022-12-18T03:12:26.268Z,102113.84
2022-12-18T03:13:45.852Z,102113.66
2022-12-18T03:14:58.809Z,102110.28
2022-12-18T03:16:04.316Z,102120.84
2022-12-18T03:17:10.887Z,102118.28
2022-12-18T03:18:21.173Z,102119.69
2022-12-18T03:19:27.117Z,102114.88
2022-12-18T03:20:36.830Z,102122.28
2022-12-18T03:21:49.587Z,102119.69
2022-12-18T03:22:57.260Z,102116.56
2022-12-18T03:24:01.982Z,102122.91
2022-12-18T03:25:09.804Z,102122.69
2022-12-18T03:26:17.930Z,102121.53
2022-12-18T03:27:23.846Z,102125.91
2022-12-18T03:28:32.793Z,102128.66
2022-12-18T03:29:53.827Z,102127.69
2022-12-18T03:31:03.327Z,102128.50
2022-12-18T03:32:21.892Z,102130.06
2022-12-18T03:33:41.667Z,102132.09
2022-12-18T03:34:48.850Z,102135.09
2022-12-18T03:35:52.841Z,102138.28
2022-12-18T03:36:55.349Z,102141.84
2022-12-18T03:37:59.497Z,102143.06
2022-12-18T03:39:02.592Z,102142.66
2022-12-18T03:40:07.176Z,102148.22
2022-12-18T03:41:25.133Z,102146.25
2022-12-18T03:43:12.274Z,102136.91
2022-12-18T03:44:36.055Z,102152.44
2022-12-18T03:45:49.556Z,102153.41
2022-12-18T03:47:04.232Z,102149.44
2022-12-18T03:48:19.858Z,102148.25
2022-12-18T03:49:29.034Z,102154.41
2022-12-18T03:50:56.455Z,102160.22
2022-12-18T03:52:07.014Z,102151.84
2022-12-18T03:53:23.077Z,102158.22
2022-12-18T03:54:28.248Z,102161.81
2022-12-18T03:55:39.230Z,102159.22
2022-12-18T03:56:45.742Z,102164.38
2022-12-18T03:57:50.456Z,102163.19
2022-12-18T03:58:55.131Z,102164.34
2022-12-18T04:00:11.658Z,102168.97
2022-12-18T04:01:53.631Z,102173.56
2022-12-18T04:02:58.331Z,102172.94
2022-12-18T04:04:11.634Z,102181.47
2022-12-18T04:05:18.795Z,102177.50
2022-12-18T04:06:22.074Z,102175.09
2022-12-18T04:07:25.534Z,102180.28
2022-12-18T04:08:28.981Z,102172.75
2022-12-18T04:09:42.833Z,102180.91
2022-12-18T04:10:45.558Z,102177.50
2022-12-18T04:11:49.050Z,102189.84
2022-12-18T04:12:56.498Z,102198.00
2022-12-18T04:13:59.923Z,102193.66
2022-12-18T04:15:02.217Z,102194.03
2022-12-18T04:16:06.422Z,102198.81
2022-12-18T04:17:09.012Z,102197.63
2022-12-18T04:18:11.247Z,102202.41
2022-12-18T04:19:18.162Z,102198.00
2022-12-18T04:20:23.560Z,102205.19
2022-12-18T04:21:25.954Z,102204.78
2022-12-18T04:22:31.629Z,102195.81
2022-12-18T04:23:35.566Z,102206.97
2022-12-18T04:24:38.060Z,102200.59
2022-12-18T04:25:51.866Z,102204.78
2022-12-18T04:27:03.690Z,102203.78
2022-12-18T04:28:09.736Z,102211.94
2022-12-18T04:29:16.382Z,102221.09
2022-12-18T04:30:18.785Z,102218.31
2022-12-18T04:31:21.620Z,102213.31
2022-12-18T04:32:24.269Z,102219.13
2022-12-18T04:33:27.239Z,102213.94
2022-12-18T04:34:30.743Z,102224.88
2022-12-18T04:35:34.126Z,102225.25
2022-12-18T04:36:37.247Z,102223.84
2022-12-18T04:37:40.676Z,102225.03
2022-12-18T04:38:43.689Z,102224.28
2022-12-18T04:39:49.667Z,102229.84
2022-12-18T04:40:59.530Z,102229.66
2022-12-18T04:42:07.053Z,102234.63
2022-12-18T04:43:11.882Z,102233.22
2022-12-18T04:44:14.663Z,102234.81
2022-12-18T04:45:17.402Z,102237.00
2022-12-18T04:46:20.228Z,102232.81
2022-12-18T04:47:23.010Z,102237.38
2022-12-18T04:48:25.766Z,102235.81
2022-12-18T04:49:28.259Z,102243.34
2022-12-18T04:50:31.186Z,102242.38
2022-12-18T04:51:34.025Z,102233.22
2022-12-18T04:52:37.352Z,102235.81
2022-12-18T04:53:40.239Z,102237.41
2022-12-18T04:54:43.163Z,102247.94
2022-12-18T04:55:45.789Z,102247.75
2022-12-18T04:56:49.021Z,102250.91
2022-12-18T04:57:51.605Z,102249.72
2022-12-18T04:58:55.707Z,102258.88
2022-12-18T04:59:59.229Z,102252.91
2022-12-18T05:01:02.428Z,102254.69
2022-12-18T05:02:05.849Z,102261.06
2022-12-18T05:03:08.254Z,102258.88
2022-12-18T05:04:11.004Z,102253.94
2022-12-18T05:05:13.539Z,102260.50
2022-12-18T05:06:16.268Z,102265.88
2022-12-18T05:07:18.667Z,102266.28
2022-12-18T05:08:21.401Z,102270.84
2022-12-18T05:09:24.219Z,102262.41
2022-12-18T05:10:26.779Z,102275.97
2022-12-18T05:11:30.728Z,102273.03
2022-12-18T05:12:34.851Z,102274.19
2022-12-18T05:13:39.443Z,102275.16
2022-12-18T05:14:42.069Z,102280.28
2022-12-18T05:15:55.024Z,102278.13
2022-12-18T05:17:01.004Z,102280.28
2022-12-18T05:18:04.851Z,102291.47
2022-12-18T05:19:08.796Z,102294.59
2022-12-18T05:20:11.636Z,102288.44
2022-12-18T05:21:13.991Z,102299.56
2022-12-18T05:22:16.768Z,102295.56
2022-12-18T05:23:21.596Z,102297.41
2022-12-18T05:24:23.976Z,102301.19
2022-12-18T05:25:26.419Z,102297.63
2022-12-18T05:26:28.976Z,102294.00
2022-12-18T05:27:31.344Z,102299.00
2022-12-18T05:28:36.006Z,102302.19
2022-12-18T05:29:38.672Z,102296.00
2022-12-18T05:30:41.388Z,102299.97
2022-12-18T05:31:46.235Z,102303.09
2022-12-18T05:32:48.970Z,102305.22
2022-12-18T05:33:51.415Z,102306.47
2022-12-18T05:34:54.132Z,102306.69
2022-12-18T05:35:59.323Z,102308.44
2022-12-18T05:37:01.729Z,102312.84
2022-12-18T05:38:04.222Z,102314.16
2022-12-18T05:39:07.798Z,102315.75
2022-12-18T05:40:11.014Z,102325.09
2022-12-18T05:41:13.491Z,102324.94
2022-12-18T05:42:15.921Z,102315.84
2022-12-18T05:43:22.692Z,102325.75
2022-12-18T05:44:25.377Z,102318.16
2022-12-18T05:45:28.122Z,102332.88
2022-12-18T05:46:30.897Z,102325.19
2022-12-18T05:47:33.736Z,102321.81
2022-12-18T05:48:36.543Z,102332.88
2022-12-18T05:49:38.962Z,102329.94
2022-12-18T05:50:43.874Z,102326.72
2022-12-18T05:51:47.299Z,102330.97
2022-12-18T05:52:50.327Z,102331.38
2022-12-18T05:53:52.729Z,102331.59
2022-12-18T05:54:55.140Z,102335.56
2022-12-18T05:56:02.225Z,102336.97
2022-12-18T05:57:04.797Z,102342.13
2022-12-18T05:58:08.933Z,102345.75
2022-12-18T05:59:11.730Z,102349.09
2022-12-18T06:00:18.319Z,102338.97
2022-12-18T06:01:25.976Z,102341.91
2022-12-18T06:02:30.400Z,102358.22
2022-12-18T06:03:34.176Z,102354.69
2022-12-18T06:04:37.602Z,102348.16
2022-12-18T06:05:45.461Z,102355.31
2022-12-18T06:06:48.067Z,102357.28
2022-12-18T06:07:53.227Z,102366.25
2022-12-18T06:08:58.353Z,102357.69
2022-12-18T06:10:01.081Z,102367.03
2022-12-18T06:11:03.604Z,102356.31
2022-12-18T06:12:07.872Z,102367.69
2022-12-18T06:13:12.249Z,102366.50
2022-12-18T06:14:18.408Z,102369.34
2022-12-18T06:15:21.061Z,102367.97
2022-12-18T06:16:27.513Z,102370.34
2022-12-18T06:17:33.794Z,102379.53
2022-12-18T06:18:39.418Z,102382.16
2022-12-18T06:19:42.928Z,102379.13
2022-12-18T06:20:45.230Z,102383.56
2022-12-18T06:21:48.328Z,102381.56
2022-12-18T06:22:50.786Z,102378.56
2022-12-18T06:23:53.160Z,102387.94
2022-12-18T06:24:55.394Z,102382.91
2022-12-18T06:25:58.294Z,102386.19
2022-12-18T06:27:00.637Z,102383.00
2022-12-18T06:28:03.916Z,102380.78
2022-12-18T06:29:08.009Z,102391.38
2022-12-18T06:30:11.052Z,102388.06
2022-12-18T06:31:13.751Z,102388.47
2022-12-18T06:32:16.216Z,102400.81
2022-12-18T06:33:18.928Z,102392.66
2022-12-18T06:34:21.365Z,102401.41
2022-12-18T06:35:25.233Z,102397.22
2022-12-18T06:36:28.487Z,102391.88
2022-12-18T06:37:32.782Z,102402.63
2022-12-18T06:38:36.616Z,102397.66
2022-12-18T06:39:39.427Z,102398.84
2022-12-18T06:40:41.923Z,102396.28
2022-12-18T06:41:44.404Z,102402.00
2022-12-18T06:42:46.993Z,102397.28
2022-12-18T06:43:50.412Z,102397.66
2022-12-18T06:45:13.091Z,102399.63
2022-12-18T06:46:15.975Z,102409.44
2022-12-18T06:47:19.428Z,102401.69
2022-12-18T06:48:22.229Z,102408.84
2022-12-18T06:49:30.297Z,102414.03
2022-12-18T06:50:33.342Z,102407.06
2022-12-18T06:51:36.292Z,102420.69
2022-12-18T06:52:41.850Z,102424.22
2022-12-18T06:53:44.416Z,102423.00
2022-12-18T06:54:47.013Z,102420.81
2022-12-18T06:55:49.737Z,102432.78
2022-12-18T06:56:53.165Z,102430.75
2022-12-18T06:57:55.758Z,102424.38
2022-12-18T06:59:00.953Z,102428.81
2022-12-18T07:00:06.850Z,102432.38
2022-12-18T07:01:12.089Z,102439.97
2022-12-18T07:02:15.516Z,102435.97
2022-12-18T07:03:18.272Z,102441.78
2022-12-18T07:04:20.900Z,102441.31
2022-12-18T07:05:28.926Z,102447.53
2022-12-18T07:06:31.532Z,102447.94
2022-12-18T07:07:36.037Z,102455.09
2022-12-18T07:08:38.637Z,102447.50
2022-12-18T07:09:41.335Z,102460.47
2022-12-18T07:10:47.631Z,102458.72
2022-12-18T07:11:54.612Z,102459.44
2022-12-18T07:13:04.716Z,102468.19
2022-12-18T07:14:30.575Z,102466.66
2022-12-18T07:15:41.118Z,102473.81
2022-12-18T07:16:43.929Z,102474.22
2022-12-18T07:17:46.538Z,102475.84
2022-12-18T07:18:49.288Z,102480.69
2022-12-18T07:19:51.986Z,102482.03
2022-12-18T07:20:54.504Z,102481.84
2022-12-18T07:21:57.369Z,102485.66
2022-12-18T07:23:00.175Z,102490.47
2022-12-18T07:24:04.618Z,102489.88
2022-12-18T07:25:10.656Z,102490.69
2022-12-18T07:26:14.704Z,102487.50
2022-12-18T07:27:18.446Z,102497.47
2022-12-18T07:28:21.085Z,102498.06
2022-12-18T07:29:24.073Z,102507.59
2022-12-18T07:30:27.251Z,102501.06
2022-12-18T07:31:29.613Z,102513.00
2022-12-18T07:32:32.355Z,102509.84
2022-12-18T07:33:35.913Z,102515.81
2022-12-18T07:34:38.325Z,102514.44
2022-12-18T07:35:40.913Z,102520.81
2022-12-18T07:36:46.524Z,102523.25
2022-12-18T07:37:49.185Z,102525.41
2022-12-18T07:38:54.178Z,102527.44
2022-12-18T07:39:56.948Z,102528.66
2022-12-18T07:41:09.066Z,102536.41
2022-12-18T07:42:29.825Z,102537.00
2022-12-18T07:43:32.472Z,102533.41
2022-12-18T07:44:34.840Z,102540.97
2022-12-18T07:45:37.555Z,102541.19
2022-12-18T07:46:40.135Z,102542.19
2022-12-18T07:47:42.916Z,102539.19
2022-12-18T07:48:49.256Z,102539.59
2022-12-18T07:49:52.751Z,102541.41
2022-12-18T07:50:55.208Z,102539.63
2022-12-18T07:51:58.843Z,102540.25
2022-12-18T07:53:04.719Z,102539.44
2022-12-18T07:54:07.080Z,102539.25
2022-12-18T07:55:09.760Z,102543.63
2022-12-18T07:56:30.876Z,102546.03
2022-12-18T07:57:49.967Z,102550.63
2022-12-18T07:58:53.500Z,102546.81
2022-12-18T08:00:00.717Z,102555.44
2022-12-18T08:01:08.281Z,102550.22
2022-12-18T08:02:10.992Z,102548.44
2022-12-18T08:03:15.207Z,102547.03
2022-12-18T08:04:17.726Z,102549.81
2022-12-18T08:05:23.792Z,102554.16
2022-12-18T08:06:26.769Z,102556.38
2022-12-18T08:07:29.461Z,102557.56
2022-12-18T08:08:32.218Z,102569.75
2022-12-18T08:09:34.727Z,102567.75
2022-12-18T08:10:39.232Z,102569.66
2022-12-18T08:11:41.841Z,102562.50
2022-12-18T08:12:44.525Z,102567.31
2022-12-18T08:13:46.952Z,102569.59
2022-12-18T08:14:49.400Z,102563.75
2022-12-18T08:15:59.587Z,102579.19
2022-12-18T08:17:02.781Z,102578.38
2022-12-18T08:18:09.026Z,102575.22
2022-12-18T08:19:14.035Z,102570.94
2022-12-18T08:20:16.568Z,102579.00
2022-12-18T08:21:25.671Z,102580.25
2022-12-18T08:22:31.012Z,102579.25
2022-12-18T08:23:35.898Z,102581.66
2022-12-18T08:24:40.614Z,102578.34
2022-12-18T08:25:43.431Z,102582.22
2022-12-18T08:27:01.027Z,102578.56
2022-12-18T08:28:08.350Z,102587.47
2022-12-18T08:29:11.545Z,102581.34
2022-12-18T08:30:14.179Z,102582.94
2022-12-18T08:31:17.106Z,102586.91
2022-12-18T08:32:28.513Z,102590.44
2022-12-18T08:33:31.823Z,102595.69
2022-12-18T08:34:43.305Z,102593.34
2022-12-18T08:35:46.259Z,102594.47
2022-12-18T08:36:48.597Z,102596.88
2022-12-18T08:37:55.536Z,102594.66
2022-12-18T08:38:58.589Z,102599.78
2022-12-18T08:40:02.070Z,102601.75
2022-12-18T08:41:08.453Z,102604.09
2022-12-18T08:42:29.928Z,102602.59
2022-12-18T08:43:51.151Z,102603.22
2022-12-18T08:44:54.688Z,102605.78
2022-12-18T08:45:57.152Z,102604.19
2022-12-18T08:46:59.777Z,102603.50
2022-12-18T08:48:02.152Z,102603.56
2022-12-18T08:49:05.376Z,102605.53
2022-12-18T08:50:08.488Z,102608.66
2022-12-18T08:51:13.070Z,102610.63
2022-12-18T08:52:19.771Z,102604.09
2022-12-18T08:53:24.006Z,102609.97
2022-12-18T08:54:27.522Z,102598.59
2022-12-18T08:56:47.296Z,102606.03
2022-12-18T08:57:51.328Z,102614.69
2022-12-18T08:58:54.968Z,102616.38
2022-12-18T08:59:57.570Z,102620.38
2022-12-18T09:01:05.362Z,102615.06
2022-12-18T09:02:09.535Z,102610.44
2022-12-18T09:03:15.570Z,102614.06
2022-12-18T09:04:19.980Z,102614.03
2022-12-18T09:05:22.548Z,102620.59
2022-12-18T09:06:26.774Z,102607.44
2022-12-18T09:07:29.645Z,102611.44
2022-12-18T09:08:32.812Z,102623.03
2022-12-18T09:09:38.594Z,102619.41
2022-12-18T09:10:50.530Z,102620.50
2022-12-18T09:11:53.185Z,102612.66
2022-12-18T09:12:57.327Z,102623.81
2022-12-18T09:14:01.713Z,102624.31
2022-12-18T09:15:05.679Z,102621.66
2022-12-18T09:16:08.470Z,102623.16
2022-12-18T09:17:11.087Z,102619.78
2022-12-18T09:18:15.978Z,102625.81
2022-12-18T09:19:18.850Z,102628.22
2022-12-18T09:20:21.520Z,102627.88
2022-12-18T09:21:24.341Z,102621.97
2022-12-18T09:22:31.910Z,102633.34
2022-12-18T09:23:39.128Z,102639.66
2022-12-18T09:24:45.373Z,102631.78
2022-12-18T09:25:53.862Z,102628.69
2022-12-18T09:26:57.997Z,102638.47
2022-12-18T09:28:01.558Z,102647.16
2022-12-18T09:29:07.760Z,102640.84
2022-12-18T09:30:14.087Z,102649.19
2022-12-18T09:31:18.791Z,102645.69
2022-12-18T09:32:22.810Z,102645.56
2022-12-18T09:33:25.988Z,102642.75
2022-12-18T09:34:31.882Z,102645.41
2022-12-18T09:35:38.043Z,102650.56
2022-12-18T09:36:41.399Z,102645.94
2022-12-18T09:37:44.658Z,102644.91
2022-12-18T09:38:50.711Z,102648.72
2022-12-18T09:39:55.157Z,102650.72
2022-12-18T09:41:39.684Z,102643.41
2022-12-18T09:42:46.903Z,102648.63
2022-12-18T09:43:57.341Z,102647.53
2022-12-18T09:45:13.065Z,102647.28
2022-12-18T09:46:19.215Z,102649.81
2022-12-18T09:47:40.053Z,102651.28
2022-12-18T09:48:45.916Z,102651.66
2022-12-18T09:49:53.968Z,102654.00
2022-12-18T09:51:02.167Z,102659.25
2022-12-18T09:52:35.380Z,102660.59
2022-12-18T09:53:40.609Z,102656.78
2022-12-18T09:54:45.505Z,102659.88
2022-12-18T09:55:49.863Z,102661.56
2022-12-18T09:56:52.913Z,102667.25
2022-12-18T09:58:06.008Z,102664.72
2022-12-18T09:59:28.634Z,102662.25
2022-12-18T10:00:37.687Z,102661.34
2022-12-18T10:01:44.587Z,102665.75
2022-12-18T10:03:03.365Z,102666.03
2022-12-18T10:04:10.109Z,102668.31
2022-12-18T10:05:16.793Z,102664.94
2022-12-18T10:06:40.212Z,102670.34
2022-12-18T10:08:07.071Z,102663.78
2022-12-18T10:09:38.572Z,102661.50
2022-12-18T10:10:55.769Z,102659.19
2022-12-18T10:12:15.602Z,102664.22
2022-12-18T10:13:29.080Z,102659.78
2022-12-18T10:14:59.670Z,102654.94
2022-12-18T10:16:34.325Z,102660.03
2022-12-18T10:18:22.166Z,102652.28
2022-12-18T10:19:50.496Z,102655.72
2022-12-18T10:20:55.979Z,102654.09
2022-12-18T10:22:11.806Z,102649.44
2022-12-18T10:23:22.998Z,102645.69
2022-12-18T10:24:35.139Z,102653.88
2022-12-18T10:25:47.204Z,102654.09
2022-12-18T10:26:49.762Z,102648.31
2022-12-18T10:27:56.597Z,102649.97
2022-12-18T10:29:05.271Z,102653.53
2022-12-18T10:30:17.557Z,102657.31
2022-12-18T10:31:25.389Z,102659.06
2022-12-18T10:32:30.630Z,102667.91
2022-12-18T10:33:34.572Z,102655.53
2022-12-18T10:34:36.990Z,102654.69
2022-12-18T10:35:42.971Z,102663.56
2022-12-18T10:36:48.860Z,102658.56
2022-12-18T10:38:13.089Z,102652.69
2022-12-18T10:39:24.464Z,102651.91
2022-12-18T10:40:26.803Z,102648.59
2022-12-18T10:41:29.649Z,102656.50
2022-12-18T10:42:32.679Z,102654.22
2022-12-18T10:43:37.733Z,102650.47
2022-12-18T10:44:40.044Z,102649.00
2022-12-18T10:45:43.608Z,102656.63
2022-12-18T10:46:48.163Z,102653.09
2022-12-18T10:47:51.283Z,102654.78
2022-12-18T10:48:58.089Z,102656.25
2022-12-18T10:50:02.589Z,102657.59
2022-12-18T10:51:13.492Z,102659.47
2022-12-18T10:52:20.714Z,102665.16
2022-12-18T10:53:26.533Z,102660.88
2022-12-18T10:54:36.232Z,102661.84
2022-12-18T10:55:47.158Z,102675.94
2022-12-18T10:56:49.751Z,102672.03
2022-12-18T10:57:52.256Z,102663.97
2022-12-18T10:59:07.250Z,102663.81
2022-12-18T11:00:25.445Z,102667.78
2022-12-18T11:01:28.638Z,102670.03
2022-12-18T11:02:39.397Z,102661.66
2022-12-18T11:03:47.296Z,102666.81
2022-12-18T11:04:54.209Z,102662.97
2022-12-18T11:06:18.249Z,102659.78
2022-12-18T11:07:20.901Z,102665.78
2022-12-18T11:08:24.473Z,102660.22
2022-12-18T11:09:33.060Z,102653.13
2022-12-18T11:10:38.845Z,102661.31
2022-12-18T11:11:42.436Z,102659.34
2022-12-18T11:12:45.171Z,102658.69
2022-12-18T11:14:00.603Z,102658.16
2022-12-18T11:15:02.920Z,102655.19
2022-12-18T11:16:05.542Z,102653.56
2022-12-18T11:17:26.494Z,102653.53
2022-12-18T11:18:33.167Z,102659.38
2022-12-18T11:19:37.047Z,102658.38
2022-12-18T11:20:40.401Z,102652.47
2022-12-18T11:21:43.735Z,102644.72
2022-12-18T11:22:57.178Z,102646.31
2022-12-18T11:23:59.629Z,102644.22
2022-12-18T11:25:34.429Z,102646.59
2022-12-18T11:26:38.298Z,102653.56
2022-12-18T11:27:41.830Z,102650.69
2022-12-18T11:29:13.300Z,102649.94
2022-12-18T11:30:18.959Z,102650.13
2022-12-18T11:31:27.150Z,102643.25
2022-12-18T11:32:35.349Z,102646.66
2022-12-18T11:33:53.156Z,102653.66
2022-12-18T11:35:20.851Z,102646.22
2022-12-18T11:36:24.148Z,102638.03
2022-12-18T11:37:28.146Z,102631.88
2022-12-18T11:38:37.374Z,102636.75
2022-12-18T11:40:02.700Z,102634.44
2022-12-18T11:41:23.892Z,102635.56
2022-12-18T11:42:38.936Z,102620.56
2022-12-18T11:43:52.440Z,102620.63
2022-12-18T11:45:14.020Z,102624.06
2022-12-18T11:46:25.483Z,102625.16
2022-12-18T11:47:39.311Z,102634.94
2022-12-18T11:48:51.521Z,102630.88
2022-12-18T11:49:56.678Z,102626.06
2022-12-18T11:51:02.959Z,102624.41
2022-12-18T11:52:24.476Z,102618.88
2022-12-18T11:53:28.521Z,102624.56
2022-12-18T11:54:31.149Z,102619.19
2022-12-18T11:56:03.683Z,102629.38
2022-12-18T11:57:36.101Z,102626.84
2022-12-18T11:58:38.589Z,102628.41
2022-12-18T12:00:04.986Z,102621.19
2022-12-18T12:01:56.903Z,102622.50
2022-12-18T12:03:14.935Z,102619.13
2022-12-18T12:04:33.628Z,102617.56
2022-12-18T12:05:56.394Z,102619.44
2022-12-18T12:07:10.755Z,102625.00
2022-12-18T12:08:18.745Z,102625.91
2022-12-18T12:09:33.861Z,102621.03
2022-12-18T12:10:45.235Z,102613.88
2022-12-18T12:12:25.398Z,102605.81
2022-12-18T12:13:38.175Z,102610.56
2022-12-18T12:14:52.928Z,102615.16
2022-12-18T12:16:56.921Z,102623.06
2022-12-18T12:18:29.234Z,102614.19
2022-12-18T12:19:43.218Z,102618.97
2022-12-18T12:21:02.063Z,102611.78
2022-12-18T12:22:22.767Z,102615.38
2022-12-18T12:23:40.196Z,102614.22
2022-12-18T12:25:01.159Z,102613.59
2022-12-18T12:26:09.098Z,102617.41
2022-12-18T12:27:41.851Z,102617.88
2022-12-18T12:29:10.706Z,102620.66
2022-12-18T12:30:26.953Z,102626.44
2022-12-18T12:31:40.889Z,102622.66
2022-12-18T12:33:01.523Z,102624.34
2022-12-18T12:34:20.428Z,102629.59
2022-12-18T12:35:40.607Z,102626.56
2022-12-18T12:37:24.480Z,102626.13
2022-12-18T12:38:33.078Z,102627.13
2022-12-18T12:39:42.022Z,102623.13
2022-12-18T12:41:02.556Z,102627.13
2022-12-18T12:42:31.118Z,102631.53
2022-12-18T12:43:50.485Z,102626.94
2022-12-18T12:44:57.843Z,102632.75
2022-12-18T12:46:06.145Z,102632.13
2022-12-18T12:47:17.677Z,102630.31
2022-12-18T12:48:34.348Z,102627.97
2022-12-18T12:49:40.759Z,102636.81
2022-12-18T12:50:43.862Z,102636.19
2022-12-18T12:52:08.435Z,102638.59
2022-12-18T12:53:21.375Z,102638.41
2022-12-18T12:54:27.386Z,102642.78
2022-12-18T12:55:31.144Z,102640.16
2022-12-18T12:56:43.744Z,102645.56